createdAt,value
2022-10-19T00:00:06.827Z,4.90
2022-10-19T00:02:38.504Z,4.17
2022-10-19T00:05:10.347Z,4.00
2022-10-19T00:07:42.091Z,4.70
2022-10-19T00:10:13.863Z,3.40
2022-10-19T00:12:45.646Z,4.63
2022-10-19T00:15:17.437Z,4.20
2022-10-19T00:17:49.155Z,4.33
2022-10-19T00:20:20.885Z,4.73
2022-10-19T00:22:52.585Z,4.17
2022-10-19T00:25:24.314Z,4.70
2022-10-19T00:27:56.031Z,5.70
2022-10-19T00:30:27.785Z,5.90
2022-10-19T00:32:59.556Z,6.70
2022-10-19T00:35:31.261Z,5.43
2022-10-19T00:38:03.082Z,5.73
2022-10-19T00:40:38.987Z,4.90
2022-10-19T00:43:23.121Z,5.00
2022-10-19T00:45:54.971Z,5.03
2022-10-19T00:48:31.840Z,4.80
2022-10-19T00:51:03.680Z,4.10
2022-10-19T00:53:36.508Z,4.50
2022-10-19T00:56:13.142Z,4.37
2022-10-19T00:58:45.056Z,4.53
2022-10-19T01:01:20.832Z,4.53
2022-10-19T01:03:52.625Z,4.30
2022-10-19T01:06:25.079Z,4.47
2022-10-19T01:08:56.914Z,5.07
2022-10-19T01:11:34.795Z,4.77
2022-10-19T01:14:09.236Z,5.40
2022-10-19T01:17:13.632Z,5.70
2022-10-19T01:20:07.716Z,5.20
2022-10-19T01:23:04.336Z,5.03
2022-10-19T01:25:49.832Z,5.63
2022-10-19T01:28:45.960Z,5.13
2022-10-19T01:31:17.653Z,5.60
2022-10-19T01:34:09.748Z,6.37
2022-10-19T01:37:00.162Z,5.70
2022-10-19T01:39:57.401Z,6.27
2022-10-19T01:42:46.394Z,6.67
2022-10-19T01:45:45.580Z,7.77
2022-10-19T01:48:28.758Z,7.27
2022-10-19T01:51:03.192Z,7.30
2022-10-19T01:53:43.560Z,7.43
2022-10-19T01:56:19.963Z,7.17
2022-10-19T01:58:53.956Z,7.87
2022-10-19T02:01:29.131Z,8.23
2022-10-19T02:04:02.362Z,7.33
2022-10-19T02:06:35.145Z,7.10
2022-10-19T02:09:07.034Z,7.90
2022-10-19T02:11:38.868Z,7.17
2022-10-19T02:14:15.103Z,8.23
2022-10-19T02:16:52.056Z,8.80
2022-10-19T02:19:24.943Z,8.37
2022-10-19T02:21:57.720Z,7.97
2022-10-19T02:24:29.486Z,9.27
2022-10-19T02:27:04.798Z,8.37
2022-10-19T02:29:38.159Z,8.93
2022-10-19T02:32:11.125Z,8.07
2022-10-19T02:34:42.932Z,8.20
2022-10-19T02:37:14.718Z,8.33
2022-10-19T02:39:46.507Z,9.10
2022-10-19T02:42:42.698Z,8.33
2022-10-19T02:45:19.794Z,8.73
2022-10-19T02:47:54.345Z,8.47
2022-10-19T02:50:26.435Z,8.33
2022-10-19T02:53:01.551Z,8.63
2022-10-19T02:55:33.331Z,10.03
2022-10-19T02:58:05.108Z,8.73
2022-10-19T03:00:36.839Z,8.23
2022-10-19T03:03:09.308Z,9.33
2022-10-19T03:05:41.027Z,8.57
2022-10-19T03:08:12.730Z,8.37
2022-10-19T03:10:44.433Z,9.10
2022-10-19T03:13:16.165Z,10.13
2022-10-19T03:15:48.104Z,9.07
2022-10-19T03:18:19.860Z,9.17
2022-10-19T03:21:01.108Z,9.43
2022-10-19T03:23:33.107Z,9.60
2022-10-19T03:26:08.715Z,8.87
2022-10-19T03:28:43.229Z,9.50
2022-10-19T03:31:14.978Z,9.77
2022-10-19T03:33:46.703Z,9.13
2022-10-19T03:36:23.020Z,9.00
2022-10-19T03:38:57.506Z,9.93
2022-10-19T03:41:34.932Z,9.83
2022-10-19T03:44:08.331Z,10.13
2022-10-19T03:46:40.681Z,9.23
2022-10-19T03:49:12.663Z,9.33
2022-10-19T03:51:44.387Z,9.37
2022-10-19T03:54:17.209Z,9.87
2022-10-19T03:56:48.912Z,9.57
2022-10-19T03:59:20.671Z,10.17
2022-10-19T04:01:52.419Z,9.43
2022-10-19T04:04:24.128Z,9.53
2022-10-19T04:06:55.844Z,9.67
2022-10-19T04:09:27.617Z,10.03
2022-10-19T04:11:59.350Z,9.27
2022-10-19T04:14:39.153Z,10.50
2022-10-19T04:17:17.395Z,10.40
2022-10-19T04:19:49.089Z,9.90
2022-10-19T04:22:20.944Z,9.30
2022-10-19T04:24:53.689Z,9.63
2022-10-19T04:27:25.398Z,8.97
2022-10-19T04:29:57.142Z,8.70
2022-10-19T04:32:28.855Z,9.33
2022-10-19T04:35:00.551Z,9.93
2022-10-19T04:37:32.644Z,8.77
2022-10-19T04:40:05.942Z,8.53
2022-10-19T04:42:37.654Z,8.80
2022-10-19T04:45:09.851Z,8.70
2022-10-19T04:47:41.578Z,8.83
2022-10-19T04:50:13.282Z,9.07
2022-10-19T04:52:45.461Z,8.90
2022-10-19T04:55:17.228Z,9.23
2022-10-19T04:57:48.974Z,8.90
2022-10-19T05:00:20.782Z,7.90
2022-10-19T05:02:52.541Z,19.93
2022-10-19T05:05:25.544Z,8.70
2022-10-19T05:07:57.310Z,9.23
2022-10-19T05:10:29.087Z,8.13
2022-10-19T05:13:02.381Z,8.47
2022-10-19T05:15:34.098Z,7.83
2022-10-19T05:18:05.816Z,9.17
2022-10-19T05:20:37.530Z,9.27
2022-10-19T05:23:09.241Z,9.53
2022-10-19T05:25:40.935Z,8.50
2022-10-19T05:28:12.663Z,8.50
2022-10-19T05:30:48.863Z,8.40
2022-10-19T05:33:20.793Z,7.90
2022-10-19T05:35:52.517Z,8.03
2022-10-19T05:38:24.236Z,8.67
2022-10-19T05:40:55.939Z,9.37
2022-10-19T05:43:27.660Z,9.60
2022-10-19T05:46:04.331Z,9.03
2022-10-19T05:48:37.179Z,8.63
2022-10-19T05:51:12.014Z,8.40
2022-10-19T05:53:44.362Z,7.87
2022-10-19T05:56:18.284Z,8.50
2022-10-19T05:58:50.680Z,7.27
2022-10-19T06:01:22.754Z,7.43
2022-10-19T06:03:56.707Z,7.57
2022-10-19T06:06:30.324Z,7.77
2022-10-19T06:09:02.711Z,7.13
2022-10-19T06:11:39.016Z,8.80
2022-10-19T06:14:14.114Z,7.63
2022-10-19T06:16:46.112Z,7.60
2022-10-19T06:19:18.076Z,8.33
2022-10-19T06:21:49.800Z,9.17
2022-10-19T06:24:21.507Z,7.53
2022-10-19T06:26:53.228Z,6.70
2022-10-19T06:29:24.948Z,7.93
2022-10-19T06:31:56.718Z,7.90
2022-10-19T06:34:28.537Z,7.77
2022-10-19T06:37:00.285Z,8.13
2022-10-19T06:39:32.077Z,7.63
2022-10-19T06:42:03.991Z,7.40
2022-10-19T06:44:35.714Z,7.20
2022-10-19T06:47:07.426Z,11.73
2022-10-19T06:49:39.137Z,8.63
2022-10-19T06:52:10.920Z,7.77
2022-10-19T06:54:42.623Z,6.67
2022-10-19T06:57:14.569Z,7.77
2022-10-19T06:59:48.088Z,7.27
2022-10-19T07:02:22.674Z,7.50
2022-10-19T07:04:54.475Z,7.17
2022-10-19T07:07:26.249Z,6.93
2022-10-19T07:09:58.026Z,7.80
2022-10-19T07:12:29.870Z,6.57
2022-10-19T07:15:01.635Z,6.83
2022-10-19T07:17:33.570Z,7.10
2022-10-19T07:20:05.971Z,6.80
2022-10-19T07:22:37.769Z,6.23
2022-10-19T07:25:09.508Z,5.97
2022-10-19T07:27:41.550Z,5.40
2022-10-19T07:30:13.620Z,5.23
2022-10-19T07:32:47.044Z,4.90
2022-10-19T07:35:19.007Z,5.03
2022-10-19T07:37:50.707Z,5.00
2022-10-19T07:40:22.475Z,4.20
2022-10-19T07:42:54.213Z,4.27
2022-10-19T07:45:25.924Z,4.93
2022-10-19T07:47:58.516Z,4.70
2022-10-19T07:50:30.280Z,3.63
2022-10-19T07:53:05.149Z,4.20
2022-10-19T07:55:36.861Z,4.73
2022-10-19T07:58:08.607Z,5.00
2022-10-19T08:06:12.829Z,5.63
2022-10-19T08:08:46.285Z,5.20
2022-10-19T08:11:25.462Z,7.27
2022-10-19T08:14:00.199Z,5.73
2022-10-19T08:16:37.406Z,5.87
2022-10-19T08:19:11.787Z,6.17
2022-10-19T08:21:45.919Z,5.50
2022-10-19T08:24:19.515Z,6.33
2022-10-19T08:26:51.427Z,6.67
2022-10-19T08:29:24.591Z,5.80
2022-10-19T08:31:58.378Z,6.50
2022-10-19T08:34:30.073Z,5.93
2022-10-19T08:37:10.177Z,6.10
2022-10-19T08:39:51.858Z,6.17
2022-10-19T08:42:41.352Z,5.10
2022-10-19T08:45:23.774Z,5.93
2022-10-19T08:47:55.454Z,6.20
2022-10-19T08:50:36.322Z,5.63
2022-10-19T08:53:14.151Z,6.30
2022-10-19T08:56:39.021Z,6.33
2022-10-19T08:59:25.698Z,5.63
2022-10-19T09:02:21.561Z,6.30
2022-10-19T09:05:16.230Z,6.53
2022-10-19T09:07:51.943Z,7.40
2022-10-19T09:10:35.626Z,6.37
2022-10-19T09:13:41.446Z,7.07
2022-10-19T09:16:25.511Z,6.83
2022-10-19T09:18:57.598Z,6.47
2022-10-19T09:21:47.041Z,6.53
2022-10-19T09:24:35.229Z,6.23
2022-10-19T09:27:19.853Z,6.40
2022-10-19T09:29:59.079Z,5.93
2022-10-19T09:32:37.701Z,5.37
2022-10-19T09:35:22.810Z,5.20
2022-10-19T09:37:55.699Z,4.20
2022-10-19T09:40:29.539Z,4.27
2022-10-19T09:43:13.245Z,4.40
2022-10-19T09:45:52.450Z,4.50
2022-10-19T09:48:24.110Z,4.10
2022-10-19T09:50:59.188Z,4.20
2022-10-19T09:53:30.975Z,4.23
2022-10-19T09:56:16.806Z,4.10
2022-10-19T09:58:59.306Z,4.47
2022-10-19T10:01:41.979Z,4.43
2022-10-19T10:04:17.204Z,4.23
2022-10-19T10:06:49.754Z,4.60
2022-10-19T10:09:28.410Z,4.37
2022-10-19T10:12:00.376Z,6.10
2022-10-19T10:14:36.563Z,4.27
2022-10-19T10:17:21.776Z,4.93
2022-10-19T10:19:59.311Z,5.47
2022-10-19T10:22:34.747Z,4.97
2022-10-19T10:25:17.712Z,4.40
2022-10-19T10:28:01.542Z,4.10
2022-10-19T10:30:36.215Z,4.33
2022-10-19T10:33:27.085Z,4.00
2022-10-19T10:36:08.343Z,4.47
2022-10-19T10:38:46.156Z,4.27
2022-10-19T10:41:23.403Z,5.20
2022-10-19T10:44:06.604Z,4.00
2022-10-19T10:46:50.324Z,3.57
2022-10-19T10:49:33.991Z,4.00
2022-10-19T10:52:17.835Z,3.70
2022-10-19T10:55:12.570Z,3.33
2022-10-19T10:57:52.136Z,3.73
2022-10-19T11:00:26.556Z,3.73
2022-10-19T11:03:20.064Z,3.03
2022-10-19T11:05:55.897Z,3.07
2022-10-19T11:08:46.093Z,3.23
2022-10-19T11:11:22.482Z,3.57
2022-10-19T11:14:01.406Z,3.87
2022-10-19T11:16:42.610Z,3.00
2022-10-19T11:19:29.490Z,3.20
2022-10-19T11:22:27.174Z,5.10
2022-10-19T11:25:54.292Z,5.70
2022-10-19T11:28:29.054Z,5.17
2022-10-19T11:31:13.100Z,4.03
2022-10-19T11:34:03.656Z,6.60
2022-10-19T11:36:41.200Z,4.47
2022-10-19T11:39:44.564Z,3.57
2022-10-19T11:42:20.794Z,3.17
2022-10-19T11:45:11.568Z,4.43
2022-10-19T11:48:20.016Z,3.83
2022-10-19T11:51:04.161Z,3.47
2022-10-19T11:54:00.556Z,3.80
2022-10-19T11:57:03.592Z,7.47
2022-10-19T12:00:27.248Z,3.10
2022-10-19T12:03:32.419Z,3.13
2022-10-19T12:06:35.068Z,5.40
2022-10-19T12:09:21.702Z,3.33
2022-10-19T12:12:12.160Z,3.57
2022-10-19T12:14:46.669Z,3.57
2022-10-19T12:17:27.972Z,3.63
2022-10-19T12:20:04.513Z,3.87
2022-10-19T12:22:37.704Z,3.03
2022-10-19T12:25:15.273Z,3.47
2022-10-19T12:27:49.944Z,2.87
2022-10-19T12:30:23.974Z,3.30
2022-10-19T12:33:05.521Z,3.33
2022-10-19T12:35:40.800Z,3.93
2022-10-19T12:38:43.950Z,3.30
2022-10-19T12:41:29.447Z,2.57
2022-10-19T12:44:16.046Z,3.50
2022-10-19T12:46:56.443Z,3.20
2022-10-19T12:49:30.469Z,3.47
2022-10-19T12:52:02.838Z,3.50
2022-10-19T12:54:37.389Z,3.30
2022-10-19T12:57:38.944Z,3.60
2022-10-19T13:00:24.352Z,2.93
2022-10-19T13:03:20.384Z,2.80
2022-10-19T13:06:01.238Z,3.53
2022-10-19T13:08:42.475Z,3.10
2022-10-19T13:11:15.609Z,3.53
2022-10-19T13:14:26.613Z,3.07
2022-10-19T13:17:03.158Z,3.30
2022-10-19T13:19:35.185Z,2.87
2022-10-19T13:22:28.290Z,2.70
2022-10-19T13:25:32.944Z,3.10
2022-10-19T13:28:07.488Z,2.77
2022-10-19T13:30:39.221Z,3.17
2022-10-19T13:33:25.946Z,4.33
2022-10-19T13:36:00.705Z,2.80
2022-10-19T13:38:50.846Z,3.17
2022-10-19T13:41:50.110Z,2.80
2022-10-19T13:44:27.745Z,3.07
2022-10-19T13:47:02.295Z,3.73
2022-10-19T13:49:55.381Z,3.87
2022-10-19T13:53:03.276Z,3.53
2022-10-19T13:55:47.469Z,4.27
2022-10-19T13:58:46.969Z,4.00
2022-10-19T14:01:39.943Z,3.73
2022-10-19T14:04:41.713Z,3.77
2022-10-19T14:07:42.356Z,4.40
2022-10-19T14:10:19.237Z,3.43
2022-10-19T14:12:51.720Z,4.73
2022-10-19T14:15:27.943Z,3.63
2022-10-19T14:18:03.599Z,3.47
2022-10-19T14:20:38.860Z,3.17
2022-10-19T14:23:25.604Z,3.40
2022-10-19T14:26:01.043Z,2.87
2022-10-19T14:28:33.581Z,3.27
2022-10-19T14:31:06.967Z,3.43
2022-10-19T14:33:41.691Z,3.70
2022-10-19T14:36:22.415Z,3.10
2022-10-19T14:38:55.952Z,3.40
2022-10-19T14:41:27.686Z,3.17
2022-10-19T14:44:00.621Z,2.60
2022-10-19T14:46:34.652Z,3.33
2022-10-19T14:49:06.415Z,3.20
2022-10-19T14:51:50.817Z,3.40
2022-10-19T14:54:37.464Z,3.30
2022-10-19T14:57:17.240Z,4.00
2022-10-19T14:59:53.576Z,4.63
2022-10-19T15:02:27.705Z,3.47
2022-10-19T15:05:03.135Z,2.87
2022-10-19T15:07:40.497Z,3.50
2022-10-19T15:10:22.362Z,3.83
2022-10-19T15:13:02.047Z,2.97
2022-10-19T15:15:35.315Z,3.33
2022-10-19T15:18:13.162Z,3.20
2022-10-19T15:21:12.973Z,3.23
2022-10-19T15:23:47.144Z,2.93
2022-10-19T15:26:28.911Z,3.40
2022-10-19T15:29:20.567Z,2.87
2022-10-19T15:31:56.331Z,3.43
2022-10-19T15:34:31.363Z,3.23
2022-10-19T15:37:03.496Z,2.63
2022-10-19T15:39:40.962Z,2.40
2022-10-19T15:42:46.801Z,2.80
2022-10-19T15:45:36.879Z,2.50
2022-10-19T15:48:27.979Z,2.60
2022-10-19T15:50:59.726Z,3.27
2022-10-19T15:53:31.521Z,3.10
2022-10-19T15:58:39.983Z,3.00
2022-10-19T16:01:16.810Z,2.87
2022-10-19T16:03:48.719Z,2.70
2022-10-19T16:06:23.004Z,3.33
2022-10-19T16:08:55.331Z,3.07
2022-10-19T16:11:28.938Z,3.20
2022-10-19T16:14:00.674Z,3.40
2022-10-19T16:16:32.811Z,3.50
2022-10-19T16:19:04.616Z,3.83
2022-10-19T16:21:38.339Z,4.33
2022-10-19T16:24:10.050Z,4.10
2022-10-19T16:26:41.772Z,3.90
2022-10-19T16:29:13.463Z,4.87
2022-10-19T16:31:45.189Z,4.60
2022-10-19T16:34:17.122Z,3.90
2022-10-19T16:36:48.960Z,4.10
2022-10-19T16:39:20.735Z,4.47
2022-10-19T16:41:52.604Z,3.90
2022-10-19T16:44:24.338Z,4.27
2022-10-19T16:46:57.368Z,5.53
2022-10-19T16:49:29.313Z,5.00
2022-10-19T16:52:01.684Z,6.53
2022-10-19T16:54:33.387Z,5.20
2022-10-19T16:57:09.622Z,6.33
2022-10-19T16:59:41.793Z,5.50
2022-10-19T17:02:14.150Z,5.23
2022-10-19T17:04:46.283Z,4.60
2022-10-19T17:07:18.449Z,4.33
2022-10-19T17:09:54.490Z,3.87
2022-10-19T17:12:26.761Z,4.83
2022-10-19T17:15:17.658Z,5.67
2022-10-19T17:17:50.644Z,5.00
2022-10-19T17:20:22.661Z,5.03
2022-10-19T17:22:54.394Z,4.90
2022-10-19T17:25:26.151Z,4.27
2022-10-19T17:27:57.931Z,4.60
2022-10-19T17:30:29.716Z,4.57
2022-10-19T17:33:01.438Z,4.17
2022-10-19T17:35:34.350Z,4.50
2022-10-19T17:38:06.098Z,4.13
2022-10-19T17:40:38.049Z,4.67
2022-10-19T17:43:10.736Z,4.13
2022-10-19T17:48:19.299Z,4.63
2022-10-19T17:51:03.449Z,4.87
2022-10-19T17:53:35.281Z,4.77
2022-10-19T17:56:07.665Z,4.90
2022-10-19T17:58:40.027Z,5.30
2022-10-19T18:01:12.693Z,5.20
2022-10-19T18:03:44.736Z,6.03
2022-10-19T18:06:28.267Z,6.03
2022-10-19T18:09:01.656Z,5.97
2022-10-19T18:11:40.351Z,5.30
2022-10-19T18:14:13.244Z,5.93
2022-10-19T18:16:46.776Z,5.83
2022-10-19T18:19:18.542Z,6.47
2022-10-19T18:21:50.463Z,5.63
2022-10-19T18:24:22.310Z,5.93
2022-10-19T18:26:54.299Z,6.10
2022-10-19T18:29:27.026Z,7.00
2022-10-19T18:31:59.123Z,6.37
2022-10-19T18:34:30.883Z,6.47
2022-10-19T18:37:02.743Z,5.33
2022-10-19T18:39:34.540Z,6.40
2022-10-19T18:42:06.249Z,7.63
2022-10-19T18:44:37.984Z,6.50
2022-10-19T18:47:09.711Z,6.97
2022-10-19T18:49:41.443Z,6.77
2022-10-19T18:52:13.151Z,6.83
2022-10-19T18:54:44.857Z,6.73
2022-10-19T18:57:16.599Z,6.33
2022-10-19T18:59:48.312Z,6.90
2022-10-19T19:02:22.807Z,6.07
2022-10-19T19:05:00.346Z,6.20
2022-10-19T19:07:32.193Z,6.03
2022-10-19T19:10:04.180Z,6.40
2022-10-19T19:12:36.223Z,6.63
2022-10-19T19:15:10.151Z,6.10
2022-10-19T19:17:41.928Z,5.47
2022-10-19T19:20:13.636Z,6.20
2022-10-19T19:22:45.411Z,7.00
2022-10-19T19:25:17.218Z,6.27
2022-10-19T19:27:49.009Z,6.53
2022-10-19T19:30:20.751Z,5.70
2022-10-19T19:32:52.463Z,6.20
2022-10-19T19:35:24.568Z,6.43
2022-10-19T19:37:56.289Z,6.43
2022-10-19T19:40:28.050Z,5.63
2022-10-19T19:42:59.764Z,6.33
2022-10-19T19:45:31.496Z,6.57
2022-10-19T19:48:04.923Z,6.10
2022-10-19T19:50:37.826Z,6.20
2022-10-19T19:53:09.622Z,6.10
2022-10-19T19:55:41.337Z,5.93
2022-10-19T19:58:15.418Z,5.77
2022-10-19T20:00:47.128Z,6.20
2022-10-19T20:03:18.851Z,6.50
2022-10-19T20:05:50.588Z,6.80
2022-10-19T20:08:22.303Z,6.00
2022-10-19T20:10:54.002Z,6.03
2022-10-19T20:13:25.707Z,6.13
2022-10-19T20:15:59.005Z,5.93
2022-10-19T20:18:30.907Z,5.93
2022-10-19T20:21:04.455Z,5.93
2022-10-19T20:23:36.411Z,5.97
2022-10-19T20:26:14.917Z,5.83
2022-10-19T20:28:47.145Z,6.17
2022-10-19T20:31:19.890Z,6.00
2022-10-19T20:33:51.718Z,6.07
2022-10-19T20:36:25.204Z,6.37
2022-10-19T20:38:58.669Z,6.30
2022-10-19T20:41:30.479Z,5.60
2022-10-19T20:44:02.395Z,6.30
2022-10-19T20:46:34.987Z,5.47
2022-10-19T20:49:07.403Z,5.57
2022-10-19T20:51:39.300Z,5.97
2022-10-19T20:54:12.207Z,5.53
2022-10-19T20:56:44.098Z,6.00
2022-10-19T20:59:21.545Z,6.83
2022-10-19T21:01:55.583Z,5.90
2022-10-19T21:04:27.554Z,6.07
2022-10-19T21:06:59.956Z,6.20
2022-10-19T21:09:32.039Z,5.83
2022-10-19T21:12:04.014Z,6.57
2022-10-19T21:14:37.098Z,6.23
2022-10-19T21:17:08.852Z,6.50
2022-10-19T21:19:40.595Z,6.37
2022-10-19T21:22:12.680Z,5.70
2022-10-19T21:24:44.432Z,5.63
2022-10-19T21:27:16.540Z,6.13
2022-10-19T21:29:48.282Z,6.50
2022-10-19T21:32:20.972Z,5.90
2022-10-19T21:34:52.681Z,6.27
2022-10-19T21:37:24.409Z,6.33
2022-10-19T21:39:56.105Z,6.07
2022-10-19T21:42:28.186Z,5.93
2022-10-19T21:45:25.245Z,6.83
2022-10-19T21:47:52.785Z,6.13
2022-10-19T21:50:24.564Z,6.13
2022-10-19T21:52:56.282Z,6.07
2022-10-19T21:55:29.593Z,6.50
2022-10-19T21:58:02.840Z,6.40
2022-10-19T22:00:34.688Z,5.90
2022-10-19T22:03:06.505Z,6.30
2022-10-19T22:05:38.275Z,7.00
2022-10-19T22:08:09.982Z,6.13
2022-10-19T22:10:41.692Z,6.23
2022-10-19T22:13:13.692Z,5.67
2022-10-19T22:15:45.396Z,6.03
2022-10-19T22:18:17.121Z,5.40
2022-10-19T22:20:48.945Z,6.07
2022-10-19T22:23:20.677Z,5.93
2022-10-19T22:25:52.409Z,4.87
2022-10-19T22:28:24.279Z,6.33
2022-10-19T22:30:57.600Z,5.87
2022-10-19T22:33:29.416Z,5.93
2022-10-19T22:36:02.319Z,5.67
2022-10-19T22:38:35.250Z,6.20
2022-10-19T22:41:07.069Z,5.47
2022-10-19T22:43:38.814Z,5.53
2022-10-19T22:46:10.542Z,5.23
2022-10-19T22:48:42.310Z,6.97
2022-10-19T22:51:14.183Z,5.40
2022-10-19T22:53:45.868Z,5.13
2022-10-19T22:56:17.626Z,6.37
2022-10-19T22:58:49.390Z,6.33
2022-10-19T23:01:21.130Z,5.83
2022-10-19T23:03:52.865Z,6.47
2022-10-19T23:06:24.779Z,6.20
2022-10-19T23:08:56.509Z,5.73
2022-10-19T23:11:28.318Z,6.00
2022-10-19T23:14:00.025Z,5.83
2022-10-19T23:16:31.711Z,6.20
2022-10-19T23:19:03.674Z,5.33
2022-10-19T23:21:35.415Z,6.67
2022-10-19T23:24:07.127Z,5.43
2022-10-19T23:26:38.859Z,5.73
2022-10-19T23:29:10.582Z,5.83
2022-10-19T23:31:43.101Z,6.07
2022-10-19T23:34:14.819Z,6.30
2022-10-19T23:36:46.500Z,5.60
2022-10-19T23:39:18.315Z,5.83
2022-10-19T23:41:50.043Z,5.93
2022-10-19T23:44:21.796Z,5.23
2022-10-19T23:46:53.536Z,5.70
2022-10-19T23:49:25.350Z,5.93
2022-10-19T23:51:57.056Z,5.47
2022-10-19T23:54:28.759Z,5.80
2022-10-19T23:57:00.458Z,5.83
2022-10-19T23:59:32.199Z,6.27
